Cotes De La Manche — FQBE — position and weather

sailwx.info

Track history (hours):
 
Tides and Currents Weather Stations Pressure Air Temp Water Temp Dewpoint Dewpoint Depression Visibility Wind Speed Wind Dir Waves Ship Positions

Cotes De La Manche

Last reported at 2016-Jul-24 23:33 UTC. Time now 2016-Jul-25 00:14 UTC.
Position N 49°29' E 000°02'.

Length 25 m; draft 3.7 m.

Type: Other ship. MMSI: 227091000.

Date/timePositionNaut miles runAvg speedWind from/ knotsBaromVisibWave heightAir tempDewpointWater temp
2016-Jul-24 23:33N 49°29' E 000°02'0 0.0
2016-Jul-24 22:33N 49°29' E 000°02'0 0.0
2016-Jul-24 21:34N 49°29' E 000°02'0 0.0
2016-Jul-24 20:33N 49°29' E 000°02'0 0.0
2016-Jul-24 19:33N 49°29' E 000°02'0 0.0
2016-Jul-24 18:33N 49°29' E 000°02'0 0.0
2016-Jul-24 17:33N 49°29' E 000°02'0 0.0
2016-Jul-24 16:33N 49°29' E 000°02'0 0.0
2016-Jul-24 15:33N 49°29' E 000°02'0 0.0
2016-Jul-24 14:33N 49°29' E 000°02'0 0.0
2016-Jul-24 13:33N 49°29' E 000°02'0 0.0
2016-Jul-24 12:33N 49°29' E 000°02'0 0.0
2016-Jul-24 11:33N 49°29' E 000°02'0 0.0
2016-Jul-24 10:33N 49°29' E 000°02'0 0.0
2016-Jul-24 09:33N 49°29' E 000°02'0 0.0
2016-Jul-24 08:33N 49°29' E 000°02'0 0.0
2016-Jul-24 07:33N 49°29' E 000°02'0 0.0
2016-Jul-24 06:33N 49°29' E 000°02'0 0.0
2016-Jul-24 05:33N 49°29' E 000°02'0 0.0
2016-Jul-24 04:33N 49°29' E 000°02'0 0.0
2016-Jul-24 03:33N 49°29' E 000°02'0 0.0
2016-Jul-24 02:33N 49°29' E 000°02'0 0.0
2016-Jul-24 01:33N 49°29' E 000°02'0 0.0
2016-Jul-24 00:33N 49°29' E 000°02'0 0.0
2016-Jul-23 23:33N 49°29' E 000°02'0 0.0
2016-Jul-23 22:33N 49°29' E 000°02'0 0.0
2016-Jul-23 21:33N 49°29' E 000°02'0 0.0
2016-Jul-23 20:33N 49°29' E 000°02'0 0.0
2016-Jul-23 19:33N 49°29' E 000°02'0 0.0
2016-Jul-23 18:34N 49°29' E 000°02'3 3.1
2016-Jul-23 17:33N 49°27' W 000°02'9 9.0
2016-Jul-23 16:33N 49°22' W 000°14'3 3.3
2016-Jul-23 15:33N 49°21' W 000°18'0 0.0
2016-Jul-23 14:33N 49°21' W 000°18'0 0.0
2016-Jul-23 13:33N 49°21' W 000°18'0 0.0
2016-Jul-23 12:33N 49°21' W 000°18'0 0.0
2016-Jul-23 11:33N 49°21' W 000°18'0 0.0
2016-Jul-23 10:33N 49°21' W 000°18'0 0.0
2016-Jul-23 09:33N 49°21' W 000°18'0 0.0
2016-Jul-23 08:33N 49°21' W 000°18'0 0.0
2016-Jul-23 07:33N 49°21' W 000°18'0 0.1
2016-Jul-23 06:33N 49°21' W 000°18'0 0.0
2016-Jul-23 04:33N 49°21' W 000°18'0 0.0
2016-Jul-23 03:33N 49°21' W 000°18'0 0.0
2016-Jul-23 02:33N 49°21' W 000°18'0 0.0
2016-Jul-23 01:33N 49°21' W 000°18'0 0.0
2016-Jul-23 00:33N 49°21' W 000°18'0 0.0
2016-Jul-22 23:33N 49°21' W 000°18'0 0.0
2016-Jul-22 22:33N 49°21' W 000°18'0 0.0
2016-Jul-22 21:33N 49°21' W 000°18'0 0.0
2016-Jul-22 20:33N 49°21' W 000°18'0 0.0
2016-Jul-22 19:33N 49°21' W 000°18'0 0.0
2016-Jul-22 18:33N 49°21' W 000°18'1 0.6
2016-Jul-22 17:33N 49°21' W 000°18'1111.0
2016-Jul-22 16:33N 49°27' W 000°03'4 3.9
2016-Jul-22 15:33N 49°29' E 000°02'0 0.0
2016-Jul-22 14:33N 49°29' E 000°02'0 0.0
2016-Jul-22 13:33N 49°29' E 000°02'0 0.0
2016-Jul-22 12:33N 49°29' E 000°02'0 0.0
2016-Jul-22 11:33N 49°29' E 000°02'0 0.0
2016-Jul-22 10:33N 49°29' E 000°02'0 0.0
2016-Jul-22 09:33N 49°29' E 000°02'0 0.0
2016-Jul-22 08:33N 49°29' E 000°02'0 0.0
2016-Jul-22 07:33N 49°29' E 000°02'0 0.0
2016-Jul-22 05:33N 49°29' E 000°02'0 0.0
2016-Jul-22 04:33N 49°29' E 000°02'0 0.0
2016-Jul-22 03:33N 49°29' E 000°02'0 0.0
2016-Jul-22 02:33N 49°29' E 000°02'0 0.0
2016-Jul-22 01:33N 49°29' E 000°02'0 0.0
2016-Jul-22 00:33N 49°29' E 000°02'0 0.0
2016-Jul-21 23:33N 49°29' E 000°02'0 0.0
2016-Jul-21 22:33N 49°29' E 000°02'0 0.0
2016-Jul-21 21:33N 49°29' E 000°02'0 0.0
2016-Jul-21 20:33N 49°29' E 000°02'3 3.3
2016-Jul-21 19:33N 49°29' E 000°07'0 0.5
2016-Jul-21 18:33N 49°29' E 000°07'0 0.0
2016-Jul-21 17:33N 49°29' E 000°07'0 0.0
2016-Jul-21 16:33N 49°29' E 000°07'0 0.0
2016-Jul-21 15:33N 49°29' E 000°07'0 0.0
2016-Jul-21 14:33N 49°29' E 000°07'0 0.0
2016-Jul-21 13:33N 49°29' E 000°07'0 0.0
2016-Jul-21 12:33N 49°29' E 000°07'0 0.0
2016-Jul-21 11:33N 49°29' E 000°07'0 0.0
2016-Jul-21 10:33N 49°29' E 000°07'0 0.0
2016-Jul-21 09:33N 49°29' E 000°07'0 0.0
2016-Jul-21 08:33N 49°29' E 000°07'0 0.0
2016-Jul-21 07:33N 49°29' E 000°07'0 0.0
2016-Jul-21 06:33N 49°29' E 000°07'0 0.0
2016-Jul-21 05:33N 49°29' E 000°07'0 0.0
2016-Jul-21 04:33N 49°29' E 000°07'0 0.0
2016-Jul-21 03:33N 49°29' E 000°07'0 0.0
2016-Jul-21 02:33N 49°29' E 000°07'0 0.0
2016-Jul-21 01:34N 49°29' E 000°07'0 0.0
2016-Jul-21 00:19N 49°29' E 000°07'0 0.0
2016-Jul-20 23:33N 49°29' E 000°07'0 0.0
2016-Jul-20 22:33N 49°29' E 000°07'0 0.0
2016-Jul-20 21:33N 49°29' E 000°07'0 0.0
2016-Jul-20 20:33N 49°29' E 000°07'0 0.0
2016-Jul-20 19:33N 49°29' E 000°07'2 2.1
2016-Jul-20 18:33N 49°29' E 000°04'1010.1
2016-Jul-20 17:33N 49°30' W 000°11'2 1.5
2016-Jul-20 16:33N 49°29' W 000°14'0 0.0
2016-Jul-20 15:33N 49°29' W 000°14'0 0.0
2016-Jul-20 14:33N 49°29' W 000°14'0 0.0
2016-Jul-20 13:33N 49°29' W 000°14'0 0.1
2016-Jul-20 12:33N 49°29' W 000°14'0 0.0
2016-Jul-20 11:33N 49°29' W 000°14'0 0.0
2016-Jul-20 10:33N 49°29' W 000°14'0 0.0
2016-Jul-20 09:34N 49°29' W 000°14'0 0.0
2016-Jul-20 08:33N 49°29' W 000°14'0 0.0
2016-Jul-20 07:33N 49°29' W 000°14'0 0.0
2016-Jul-20 06:34N 49°29' W 000°14'0 0.0
2016-Jul-20 05:33N 49°29' W 000°14'0 0.1
2016-Jul-20 04:33N 49°29' W 000°14'0 0.0
2016-Jul-20 03:33N 49°29' W 000°14'0 0.0
2016-Jul-20 02:33N 49°29' W 000°14'0 0.0
2016-Jul-20 01:33N 49°29' W 000°14'0 0.0
2016-Jul-20 00:33N 49°29' W 000°14'0 0.0
2016-Jul-19 23:33N 49°29' W 000°14'0 0.1
2016-Jul-19 22:33N 49°29' W 000°14'0 0.0
2016-Jul-19 21:33N 49°29' W 000°14'0 0.0
2016-Jul-19 20:33N 49°29' W 000°14'0 0.0
2016-Jul-19 19:33N 49°29' W 000°14'0 0.0
2016-Jul-19 18:33N 49°29' W 000°14'0 0.0
2016-Jul-19 17:33N 49°29' W 000°14'4 3.9
2016-Jul-19 16:33N 49°29' W 000°08'6 5.6
2016-Jul-19 15:33N 49°28' E 000°01'1 0.8
2016-Jul-19 14:33N 49°27' E 000°00'0 0.3
2016-Jul-19 13:33N 49°28' E 000°00'0 0.0
2016-Jul-19 12:33N 49°28' E 000°00'0 0.3
2016-Jul-19 11:33N 49°28' E 000°00'1 0.9
2016-Jul-19 10:33N 49°28' E 000°01'1 1.1
2016-Jul-19 09:33N 49°27' E 000°00'1 1.2
2016-Jul-19 08:33N 49°28' E 000°01'1 1.3
2016-Jul-19 07:33N 49°27' E 000°00'0 0.1
2016-Jul-19 04:33N 49°28' E 000°00'2 1.7
2016-Jul-19 03:33N 49°29' E 000°02'0 0.0
2016-Jul-19 02:30N 49°29' E 000°02'0 0.0
2016-Jul-19 01:33N 49°29' E 000°02'0 0.0
2016-Jul-19 00:33N 49°29' E 000°02'0 0.0
2016-Jul-18 23:33N 49°29' E 000°02'0 0.0
2016-Jul-18 22:33N 49°29' E 000°02'0 0.0
2016-Jul-18 21:33N 49°29' E 000°02'0 0.0
2016-Jul-18 20:33N 49°29' E 000°02'0 0.0
2016-Jul-18 19:33N 49°29' E 000°02'0 0.0
2016-Jul-18 18:33N 49°29' E 000°02'0 0.0
2016-Jul-18 17:33N 49°29' E 000°02'0 0.0
2016-Jul-18 16:33N 49°29' E 000°02'0 0.0
2016-Jul-18 15:33N 49°29' E 000°02'2 2.1
2016-Jul-18 14:33N 49°27' E 000°03'2 2.4
2016-Jul-18 13:33N 49°26' E 000°06'0 0.2
2016-Jul-18 12:33N 49°26' E 000°06'0 0.2
2016-Jul-18 11:31N 49°26' E 000°06'0 0.0
2016-Jul-18 10:31N 49°26' E 000°06'0 0.2
2016-Jul-18 09:31N 49°26' E 000°06'0 0.1
2016-Jul-18 08:31N 49°26' E 000°06'0 0.0
2016-Jul-18 07:31N 49°26' E 000°06'0 0.2
2016-Jul-18 06:32N 49°26' E 000°06'0 0.2
2016-Jul-18 05:33N 49°26' E 000°06'0 0.3
2016-Jul-18 04:33N 49°26' E 000°06'4 3.7
2016-Jul-18 03:32N 49°29' E 000°02'0 0.0
2016-Jul-18 02:32N 49°29' E 000°02'0 0.0
2016-Jul-18 01:32N 49°29' E 000°02'0 0.0
2016-Jul-18 00:32N 49°29' E 000°02'0 0.0
2016-Jul-17 23:32N 49°29' E 000°02'0 0.0
2016-Jul-17 22:32N 49°29' E 000°02'0 0.0
2016-Jul-17 21:32N 49°29' E 000°02'0 0.0
2016-Jul-17 20:32N 49°29' E 000°02'0 0.0
2016-Jul-17 19:32N 49°29' E 000°02'0 0.0
2016-Jul-17 18:32N 49°29' E 000°02'0 0.0
2016-Jul-17 17:32N 49°29' E 000°02'0 0.0
2016-Jul-17 16:32N 49°29' E 000°02'0 0.0
2016-Jul-17 15:32N 49°29' E 000°02'0 0.0
2016-Jul-17 14:32N 49°29' E 000°02'0 0.0
2016-Jul-17 13:32N 49°29' E 000°02'0 0.0
2016-Jul-17 12:32N 49°29' E 000°02'0 0.0
2016-Jul-17 11:32N 49°29' E 000°02'0 0.0
2016-Jul-17 10:32N 49°29' E 000°02'0 0.0
2016-Jul-17 09:32N 49°29' E 000°02'0 0.0
2016-Jul-17 08:33N 49°29' E 000°02'0 0.0
2016-Jul-17 07:33N 49°29' E 000°02'0 0.0
2016-Jul-17 06:33N 49°29' E 000°02'0 0.0
2016-Jul-17 04:33N 49°29' E 000°02'0 0.0
2016-Jul-17 03:33N 49°29' E 000°02'0 0.0
2016-Jul-17 02:33N 49°29' E 000°02'0 0.0
2016-Jul-17 01:33N 49°29' E 000°02'0 0.0
2016-Jul-17 00:34N 49°29' E 000°02'0 0.0
2016-Jul-16 23:33N 49°29' E 000°02'0 0.0
2016-Jul-16 22:33N 49°29' E 000°02'0 0.0
2016-Jul-16 21:33N 49°29' E 000°02'0 0.0
2016-Jul-16 20:33N 49°29' E 000°02'0 0.0
2016-Jul-16 19:33N 49°29' E 000°02'0 0.0
2016-Jul-16 18:34N 49°29' E 000°02'0 0.0
2016-Jul-16 17:33N 49°29' E 000°02'0 0.0
2016-Jul-16 16:33N 49°29' E 000°02'3 3.3
2016-Jul-16 15:33N 49°29' E 000°07'0 0.4
2016-Jul-16 14:33N 49°29' E 000°07'0 0.0
2016-Jul-16 13:33N 49°29' E 000°07'0 0.0
2016-Jul-16 12:33N 49°29' E 000°07'0 0.0
2016-Jul-16 11:33N 49°29' E 000°07'0 0.0
2016-Jul-16 10:33N 49°29' E 000°07'0 0.0
2016-Jul-16 09:33N 49°29' E 000°07'0 0.0
2016-Jul-16 08:33N 49°29' E 000°07'0 0.0
2016-Jul-16 07:33N 49°29' E 000°07'0 0.0
2016-Jul-16 06:33N 49°29' E 000°07'0 0.0
2016-Jul-16 04:33N 49°29' E 000°07'0 0.0
2016-Jul-16 03:33N 49°29' E 000°07'0 0.0
2016-Jul-16 02:34N 49°29' E 000°07'0 0.0
2016-Jul-16 01:33N 49°29' E 000°07'0 0.0
2016-Jul-16 00:33N 49°29' E 000°07'0 0.0
2016-Jul-15 23:33N 49°29' E 000°07'0 0.0
2016-Jul-15 22:33N 49°29' E 000°07'0 0.0
2016-Jul-15 21:33N 49°29' E 000°07'0 0.0
2016-Jul-15 20:33N 49°29' E 000°07'0 0.0
2016-Jul-15 19:33N 49°29' E 000°07'0 0.0
2016-Jul-15 18:33N 49°29' E 000°07'0 0.0
2016-Jul-15 17:34N 49°29' E 000°07'0 0.0
2016-Jul-15 16:33N 49°29' E 000°07'0 0.0
2016-Jul-15 15:33N 49°29' E 000°07'0 0.0
2016-Jul-15 14:34N 49°29' E 000°07'0 0.0
2016-Jul-15 13:34N 49°29' E 000°07'0 0.0
2016-Jul-15 12:34N 49°29' E 000°07'0 0.0
2016-Jul-15 11:34N 49°29' E 000°07'0 0.0
2016-Jul-15 10:34N 49°29' E 000°07'0 0.0
2016-Jul-15 09:34N 49°29' E 000°07'0 0.0
2016-Jul-15 08:34N 49°29' E 000°07'0 0.0
2016-Jul-15 07:34N 49°29' E 000°07'0 0.0
2016-Jul-15 06:34N 49°29' E 000°07'0 0.0
2016-Jul-15 05:33N 49°29' E 000°07'0 0.0
2016-Jul-15 04:34N 49°29' E 000°07'0 0.0
2016-Jul-15 03:34N 49°29' E 000°07'0 0.0
2016-Jul-15 02:34N 49°29' E 000°07'0 0.0
2016-Jul-15 00:34N 49°29' E 000°07'0 0.0
2016-Jul-14 23:34N 49°29' E 000°07'  
Track history (hours):
 
Tides and Currents Weather Stations Pressure Air Temp Water Temp Dewpoint Dewpoint Depression Visibility Wind Speed Wind Dir Waves Ship Positions

Cotes De La Manche

Last reported at 2016-Jul-24 23:33 UTC. Time now 2016-Jul-25 00:14 UTC.
Position N 49°29' E 000°02'.

Length 25 m; draft 3.7 m.

Type: Other ship. MMSI: 227091000.

Date/timePositionNaut miles runAvg speedWind from/ knotsBaromVisibWave heightAir tempDewpointWater temp
2016-Jul-24 23:33N 49°29' E 000°02'0 0.0
2016-Jul-24 22:33N 49°29' E 000°02'0 0.0
2016-Jul-24 21:34N 49°29' E 000°02'0 0.0
2016-Jul-24 20:33N 49°29' E 000°02'0 0.0
2016-Jul-24 19:33N 49°29' E 000°02'0 0.0
2016-Jul-24 18:33N 49°29' E 000°02'0 0.0
2016-Jul-24 17:33N 49°29' E 000°02'0 0.0
2016-Jul-24 16:33N 49°29' E 000°02'0 0.0
2016-Jul-24 15:33N 49°29' E 000°02'0 0.0
2016-Jul-24 14:33N 49°29' E 000°02'0 0.0
2016-Jul-24 13:33N 49°29' E 000°02'0 0.0
2016-Jul-24 12:33N 49°29' E 000°02'0 0.0
2016-Jul-24 11:33N 49°29' E 000°02'0 0.0
2016-Jul-24 10:33N 49°29' E 000°02'0 0.0
2016-Jul-24 09:33N 49°29' E 000°02'0 0.0
2016-Jul-24 08:33N 49°29' E 000°02'0 0.0
2016-Jul-24 07:33N 49°29' E 000°02'0 0.0
2016-Jul-24 06:33N 49°29' E 000°02'0 0.0
2016-Jul-24 05:33N 49°29' E 000°02'0 0.0
2016-Jul-24 04:33N 49°29' E 000°02'0 0.0
2016-Jul-24 03:33N 49°29' E 000°02'0 0.0
2016-Jul-24 02:33N 49°29' E 000°02'0 0.0
2016-Jul-24 01:33N 49°29' E 000°02'0 0.0
2016-Jul-24 00:33N 49°29' E 000°02'0 0.0
2016-Jul-23 23:33N 49°29' E 000°02'0 0.0
2016-Jul-23 22:33N 49°29' E 000°02'0 0.0
2016-Jul-23 21:33N 49°29' E 000°02'0 0.0
2016-Jul-23 20:33N 49°29' E 000°02'0 0.0
2016-Jul-23 19:33N 49°29' E 000°02'0 0.0
2016-Jul-23 18:34N 49°29' E 000°02'3 3.1
2016-Jul-23 17:33N 49°27' W 000°02'9 9.0
2016-Jul-23 16:33N 49°22' W 000°14'3 3.3
2016-Jul-23 15:33N 49°21' W 000°18'0 0.0
2016-Jul-23 14:33N 49°21' W 000°18'0 0.0
2016-Jul-23 13:33N 49°21' W 000°18'0 0.0
2016-Jul-23 12:33N 49°21' W 000°18'0 0.0
2016-Jul-23 11:33N 49°21' W 000°18'0 0.0
2016-Jul-23 10:33N 49°21' W 000°18'0 0.0
2016-Jul-23 09:33N 49°21' W 000°18'0 0.0
2016-Jul-23 08:33N 49°21' W 000°18'0 0.0
2016-Jul-23 07:33N 49°21' W 000°18'0 0.1
2016-Jul-23 06:33N 49°21' W 000°18'0 0.0
2016-Jul-23 04:33N 49°21' W 000°18'0 0.0
2016-Jul-23 03:33N 49°21' W 000°18'0 0.0
2016-Jul-23 02:33N 49°21' W 000°18'0 0.0
2016-Jul-23 01:33N 49°21' W 000°18'0 0.0
2016-Jul-23 00:33N 49°21' W 000°18'0 0.0
2016-Jul-22 23:33N 49°21' W 000°18'0 0.0
2016-Jul-22 22:33N 49°21' W 000°18'0 0.0
2016-Jul-22 21:33N 49°21' W 000°18'0 0.0
2016-Jul-22 20:33N 49°21' W 000°18'0 0.0
2016-Jul-22 19:33N 49°21' W 000°18'0 0.0
2016-Jul-22 18:33N 49°21' W 000°18'1 0.6
2016-Jul-22 17:33N 49°21' W 000°18'1111.0
2016-Jul-22 16:33N 49°27' W 000°03'4 3.9
2016-Jul-22 15:33N 49°29' E 000°02'0 0.0
2016-Jul-22 14:33N 49°29' E 000°02'0 0.0
2016-Jul-22 13:33N 49°29' E 000°02'0 0.0
2016-Jul-22 12:33N 49°29' E 000°02'0 0.0
2016-Jul-22 11:33N 49°29' E 000°02'0 0.0
2016-Jul-22 10:33N 49°29' E 000°02'0 0.0
2016-Jul-22 09:33N 49°29' E 000°02'0 0.0
2016-Jul-22 08:33N 49°29' E 000°02'0 0.0
2016-Jul-22 07:33N 49°29' E 000°02'0 0.0
2016-Jul-22 05:33N 49°29' E 000°02'0 0.0
2016-Jul-22 04:33N 49°29' E 000°02'0 0.0
2016-Jul-22 03:33N 49°29' E 000°02'0 0.0
2016-Jul-22 02:33N 49°29' E 000°02'0 0.0
2016-Jul-22 01:33N 49°29' E 000°02'0 0.0
2016-Jul-22 00:33N 49°29' E 000°02'0 0.0
2016-Jul-21 23:33N 49°29' E 000°02'0 0.0
2016-Jul-21 22:33N 49°29' E 000°02'0 0.0
2016-Jul-21 21:33N 49°29' E 000°02'0 0.0
2016-Jul-21 20:33N 49°29' E 000°02'3 3.3
2016-Jul-21 19:33N 49°29' E 000°07'0 0.5
2016-Jul-21 18:33N 49°29' E 000°07'0 0.0
2016-Jul-21 17:33N 49°29' E 000°07'0 0.0
2016-Jul-21 16:33N 49°29' E 000°07'0 0.0
2016-Jul-21 15:33N 49°29' E 000°07'0 0.0
2016-Jul-21 14:33N 49°29' E 000°07'0 0.0
2016-Jul-21 13:33N 49°29' E 000°07'0 0.0
2016-Jul-21 12:33N 49°29' E 000°07'0 0.0
2016-Jul-21 11:33N 49°29' E 000°07'0 0.0
2016-Jul-21 10:33N 49°29' E 000°07'0 0.0
2016-Jul-21 09:33N 49°29' E 000°07'0 0.0
2016-Jul-21 08:33N 49°29' E 000°07'0 0.0
2016-Jul-21 07:33N 49°29' E 000°07'0 0.0
2016-Jul-21 06:33N 49°29' E 000°07'0 0.0
2016-Jul-21 05:33N 49°29' E 000°07'0 0.0
2016-Jul-21 04:33N 49°29' E 000°07'0 0.0
2016-Jul-21 03:33N 49°29' E 000°07'0 0.0
2016-Jul-21 02:33N 49°29' E 000°07'0 0.0
2016-Jul-21 01:34N 49°29' E 000°07'0 0.0
2016-Jul-21 00:19N 49°29' E 000°07'0 0.0
2016-Jul-20 23:33N 49°29' E 000°07'0 0.0
2016-Jul-20 22:33N 49°29' E 000°07'0 0.0
2016-Jul-20 21:33N 49°29' E 000°07'0 0.0
2016-Jul-20 20:33N 49°29' E 000°07'0 0.0
2016-Jul-20 19:33N 49°29' E 000°07'2 2.1
2016-Jul-20 18:33N 49°29' E 000°04'1010.1
2016-Jul-20 17:33N 49°30' W 000°11'2 1.5
2016-Jul-20 16:33N 49°29' W 000°14'0 0.0
2016-Jul-20 15:33N 49°29' W 000°14'0 0.0
2016-Jul-20 14:33N 49°29' W 000°14'0 0.0
2016-Jul-20 13:33N 49°29' W 000°14'0 0.1
2016-Jul-20 12:33N 49°29' W 000°14'0 0.0
2016-Jul-20 11:33N 49°29' W 000°14'0 0.0
2016-Jul-20 10:33N 49°29' W 000°14'0 0.0
2016-Jul-20 09:34N 49°29' W 000°14'0 0.0
2016-Jul-20 08:33N 49°29' W 000°14'0 0.0
2016-Jul-20 07:33N 49°29' W 000°14'0 0.0
2016-Jul-20 06:34N 49°29' W 000°14'0 0.0
2016-Jul-20 05:33N 49°29' W 000°14'0 0.1
2016-Jul-20 04:33N 49°29' W 000°14'0 0.0
2016-Jul-20 03:33N 49°29' W 000°14'0 0.0
2016-Jul-20 02:33N 49°29' W 000°14'0 0.0
2016-Jul-20 01:33N 49°29' W 000°14'0 0.0
2016-Jul-20 00:33N 49°29' W 000°14'0 0.0
2016-Jul-19 23:33N 49°29' W 000°14'0 0.1
2016-Jul-19 22:33N 49°29' W 000°14'0 0.0
2016-Jul-19 21:33N 49°29' W 000°14'0 0.0
2016-Jul-19 20:33N 49°29' W 000°14'0 0.0
2016-Jul-19 19:33N 49°29' W 000°14'0 0.0
2016-Jul-19 18:33N 49°29' W 000°14'0 0.0
2016-Jul-19 17:33N 49°29' W 000°14'4 3.9
2016-Jul-19 16:33N 49°29' W 000°08'6 5.6
2016-Jul-19 15:33N 49°28' E 000°01'1 0.8
2016-Jul-19 14:33N 49°27' E 000°00'0 0.3
2016-Jul-19 13:33N 49°28' E 000°00'0 0.0
2016-Jul-19 12:33N 49°28' E 000°00'0 0.3
2016-Jul-19 11:33N 49°28' E 000°00'1 0.9
2016-Jul-19 10:33N 49°28' E 000°01'1 1.1
2016-Jul-19 09:33N 49°27' E 000°00'1 1.2
2016-Jul-19 08:33N 49°28' E 000°01'1 1.3
2016-Jul-19 07:33N 49°27' E 000°00'0 0.1
2016-Jul-19 04:33N 49°28' E 000°00'2 1.7
2016-Jul-19 03:33N 49°29' E 000°02'0 0.0
2016-Jul-19 02:30N 49°29' E 000°02'0 0.0
2016-Jul-19 01:33N 49°29' E 000°02'0 0.0
2016-Jul-19 00:33N 49°29' E 000°02'0 0.0
2016-Jul-18 23:33N 49°29' E 000°02'0 0.0
2016-Jul-18 22:33N 49°29' E 000°02'0 0.0
2016-Jul-18 21:33N 49°29' E 000°02'0 0.0
2016-Jul-18 20:33N 49°29' E 000°02'0 0.0
2016-Jul-18 19:33N 49°29' E 000°02'0 0.0
2016-Jul-18 18:33N 49°29' E 000°02'0 0.0
2016-Jul-18 17:33N 49°29' E 000°02'0 0.0
2016-Jul-18 16:33N 49°29' E 000°02'0 0.0
2016-Jul-18 15:33N 49°29' E 000°02'2 2.1
2016-Jul-18 14:33N 49°27' E 000°03'2 2.4
2016-Jul-18 13:33N 49°26' E 000°06'0 0.2
2016-Jul-18 12:33N 49°26' E 000°06'0 0.2
2016-Jul-18 11:31N 49°26' E 000°06'0 0.0
2016-Jul-18 10:31N 49°26' E 000°06'0 0.2
2016-Jul-18 09:31N 49°26' E 000°06'0 0.1
2016-Jul-18 08:31N 49°26' E 000°06'0 0.0
2016-Jul-18 07:31N 49°26' E 000°06'0 0.2
2016-Jul-18 06:32N 49°26' E 000°06'0 0.2
2016-Jul-18 05:33N 49°26' E 000°06'0 0.3
2016-Jul-18 04:33N 49°26' E 000°06'4 3.7
2016-Jul-18 03:32N 49°29' E 000°02'0 0.0
2016-Jul-18 02:32N 49°29' E 000°02'0 0.0
2016-Jul-18 01:32N 49°29' E 000°02'0 0.0
2016-Jul-18 00:32N 49°29' E 000°02'0 0.0
2016-Jul-17 23:32N 49°29' E 000°02'0 0.0
2016-Jul-17 22:32N 49°29' E 000°02'0 0.0
2016-Jul-17 21:32N 49°29' E 000°02'0 0.0
2016-Jul-17 20:32N 49°29' E 000°02'0 0.0
2016-Jul-17 19:32N 49°29' E 000°02'0 0.0
2016-Jul-17 18:32N 49°29' E 000°02'0 0.0
2016-Jul-17 17:32N 49°29' E 000°02'0 0.0
2016-Jul-17 16:32N 49°29' E 000°02'0 0.0
2016-Jul-17 15:32N 49°29' E 000°02'0 0.0
2016-Jul-17 14:32N 49°29' E 000°02'0 0.0
2016-Jul-17 13:32N 49°29' E 000°02'0 0.0
2016-Jul-17 12:32N 49°29' E 000°02'0 0.0
2016-Jul-17 11:32N 49°29' E 000°02'0 0.0
2016-Jul-17 10:32N 49°29' E 000°02'0 0.0
2016-Jul-17 09:32N 49°29' E 000°02'0 0.0
2016-Jul-17 08:33N 49°29' E 000°02'0 0.0
2016-Jul-17 07:33N 49°29' E 000°02'0 0.0
2016-Jul-17 06:33N 49°29' E 000°02'0 0.0
2016-Jul-17 04:33N 49°29' E 000°02'0 0.0
2016-Jul-17 03:33N 49°29' E 000°02'0 0.0
2016-Jul-17 02:33N 49°29' E 000°02'0 0.0
2016-Jul-17 01:33N 49°29' E 000°02'0 0.0
2016-Jul-17 00:34N 49°29' E 000°02'0 0.0
2016-Jul-16 23:33N 49°29' E 000°02'0 0.0
2016-Jul-16 22:33N 49°29' E 000°02'0 0.0
2016-Jul-16 21:33N 49°29' E 000°02'0 0.0
2016-Jul-16 20:33N 49°29' E 000°02'0 0.0
2016-Jul-16 19:33N 49°29' E 000°02'0 0.0
2016-Jul-16 18:34N 49°29' E 000°02'0 0.0
2016-Jul-16 17:33N 49°29' E 000°02'0 0.0
2016-Jul-16 16:33N 49°29' E 000°02'3 3.3
2016-Jul-16 15:33N 49°29' E 000°07'0 0.4
2016-Jul-16 14:33N 49°29' E 000°07'0 0.0
2016-Jul-16 13:33N 49°29' E 000°07'0 0.0
2016-Jul-16 12:33N 49°29' E 000°07'0 0.0
2016-Jul-16 11:33N 49°29' E 000°07'0 0.0
2016-Jul-16 10:33N 49°29' E 000°07'0 0.0
2016-Jul-16 09:33N 49°29' E 000°07'0 0.0
2016-Jul-16 08:33N 49°29' E 000°07'0 0.0
2016-Jul-16 07:33N 49°29' E 000°07'0 0.0
2016-Jul-16 06:33N 49°29' E 000°07'0 0.0
2016-Jul-16 04:33N 49°29' E 000°07'0 0.0
2016-Jul-16 03:33N 49°29' E 000°07'0 0.0
2016-Jul-16 02:34N 49°29' E 000°07'0 0.0
2016-Jul-16 01:33N 49°29' E 000°07'0 0.0
2016-Jul-16 00:33N 49°29' E 000°07'0 0.0
2016-Jul-15 23:33N 49°29' E 000°07'0 0.0
2016-Jul-15 22:33N 49°29' E 000°07'0 0.0
2016-Jul-15 21:33N 49°29' E 000°07'0 0.0
2016-Jul-15 20:33N 49°29' E 000°07'0 0.0
2016-Jul-15 19:33N 49°29' E 000°07'0 0.0
2016-Jul-15 18:33N 49°29' E 000°07'0 0.0
2016-Jul-15 17:34N 49°29' E 000°07'0 0.0
2016-Jul-15 16:33N 49°29' E 000°07'0 0.0
2016-Jul-15 15:33N 49°29' E 000°07'0 0.0
2016-Jul-15 14:34N 49°29' E 000°07'0 0.0
2016-Jul-15 13:34N 49°29' E 000°07'0 0.0
2016-Jul-15 12:34N 49°29' E 000°07'0 0.0
2016-Jul-15 11:34N 49°29' E 000°07'0 0.0
2016-Jul-15 10:34N 49°29' E 000°07'0 0.0
2016-Jul-15 09:34N 49°29' E 000°07'0 0.0
2016-Jul-15 08:34N 49°29' E 000°07'0 0.0
2016-Jul-15 07:34N 49°29' E 000°07'0 0.0
2016-Jul-15 06:34N 49°29' E 000°07'0 0.0
2016-Jul-15 05:33N 49°29' E 000°07'0 0.0
2016-Jul-15 04:34N 49°29' E 000°07'0 0.0
2016-Jul-15 03:34N 49°29' E 000°07'0 0.0
2016-Jul-15 02:34N 49°29' E 000°07'0 0.0
2016-Jul-15 00:34N 49°29' E 000°07'0 0.0
2016-Jul-14 23:34N 49°29' E 000°07'  

Dump ship's entire track history